Airfield :
LOGIN :

Register | Disclaimer

   EN    FR    IT 

 










Legend :    VFR   Marginal VFR   IFR   Intensive IFR   Very Intensive IFR
Visi :
Ceiling :
>= 8 km
>= 3000ft
5 to 8 km
1000 to 3000 ft
1500m to 5 km
500 to 1000 ft
800 to 1500m
200 to 500 ft
< 800m
< 200 ft
Symbols :   Thunderstorms  Fog  Heavy snow  Heavy precipitations  Wind > 20 kt
SIGMETs :     Misc.  Thunderstorms  Icing  Turbulence  Mountain Waves  Volcanic Ashes






- Airport Elevation : 13 ft
- IATA code : SNR


LFRZ - St-Nazaire

CURRENT METAR :
  • 080200Z AUTO 36004KT 270V050 9999 ///CB 21/16 Q1016 TEMPO TSRA

EXPIRED METARs :
  • 080130Z AUTO 30005KT 260V360 9999 ///TCU 22/16 Q1016 TEMPO TSRA SCT100CB
  • 080100Z AUTO 03006KT 360V060 9999 ///TCU 22/16 Q1015 TEMPO TSRA SCT100CB
  • 080030Z AUTO 36007KT 9999 ///CB 22/16 Q1016 TEMPO TSRA
  • 080000Z AUTO 23003KT CAVOK 21/18 Q1016 TEMPO TSRA SCT100CB
  • 072330Z AUTO 23004KT CAVOK 21/18 Q1016 TEMPO TSRA SCT100CB

TAF TAF LFRZ
Valid from the 08 at 00:00 until the 09 at 00:00 UTC


072300Z 0800/0824 VRB03KT CAVOK
TEMPO 0800/0804 TSRA SCT100CB
PROB30
TEMPO 0804/0807 3000 BR BKN003
BECMG 0810/0812 24010KT
BECMG 0817/0819 36010KT



MET'MAP, your aeronautical weather chart ! - Copyright ORBIFLY December 2007 - Disclaimer

ORBIFLY MET'MAP TEAM :

Programming & Development : Alexandra Zaïnal
Concept & original design : Baudouin d'Aumeries
Assistance for programming : Marc-Olivier Méhu
Technical & hardware support : Manuel Goepfert

Contact : metmap@orbifly.com




SOURCES & CREDITS :

   NOAA